Time;durP1;ratioP1;P1;durP2;ratioP2;P2;SDS_P1;SDS_P2;PMS_P1;PMS_P2;Temp;Humidity;BMP_temperature;BMP_pressure;BME280_temperature;BME280_humidity;BME280_pressure;Samples;Min_cycle;Max_cycle;Signal;HPM_P1;HPM_P2
2022/07/18 00:00:18;;;;;;;12.43;5.73;;;24.90;47.20;;;;;;5087828;28;20241;-90
2022/07/18 00:02:45;;;;;;;12.40;5.97;;;24.90;47.20;;;;;;5086991;28;20271;-90
2022/07/18 00:05:12;;;;;;;14.50;5.50;;;24.80;47.30;;;;;;5087731;28;20210;-90
2022/07/18 00:07:41;;;;;;;21.33;8.60;;;24.80;47.30;;;;;;5086369;28;20210;-91
2022/07/18 00:10:08;;;;;;;13.20;5.77;;;24.80;47.70;;;;;;5079313;28;20790;-90
2022/07/18 00:12:36;;;;;;;13.13;6.53;;;24.70;47.50;;;;;;5086644;28;20304;-91
2022/07/18 00:15:04;;;;;;;10.13;5.30;;;24.60;47.60;;;;;;5067443;28;20206;-90
2022/07/18 00:17:35;;;;;;;13.03;5.87;;;24.60;47.90;;;;;;5067339;28;20640;-90
2022/07/18 00:20:03;;;;;;;11.20;5.60;;;24.60;48.10;;;;;;5087110;28;20256;-91
2022/07/18 00:22:43;;;;;;;13.57;6.20;;;24.50;48.00;;;;;;5087535;28;20732;-92
2022/07/18 00:25:11;;;;;;;12.03;5.97;;;24.40;48.50;;;;;;5087022;28;20230;-90
2022/07/18 00:27:44;;;;;;;20.63;7.53;;;24.40;48.30;;;;;;5085912;28;20296;-90
2022/07/18 00:30:12;;;;;;;14.63;5.97;;;24.20;48.50;;;;;;5087950;28;20213;-90
2022/07/18 00:32:39;;;;;;;19.30;8.33;;;24.20;48.40;;;;;;5084996;28;20616;-90
2022/07/18 00:35:08;;;;;;;11.10;6.10;;;24.10;48.40;;;;;;5085515;28;20275;-90
2022/07/18 00:37:36;;;;;;;14.20;6.33;;;24.10;48.60;;;;;;5085815;28;20224;-90
2022/07/18 00:40:14;;;;;;;13.03;5.93;;;24.00;48.70;;;;;;5087287;28;20314;-91
2022/07/18 00:42:41;;;;;;;12.10;6.20;;;24.00;49.30;;;;;;5085836;28;20205;-90
2022/07/18 00:45:09;;;;;;;11.97;6.00;;;23.90;48.80;;;;;;5087412;28;20677;-91
2022/07/18 00:47:36;;;;;;;12.73;6.27;;;23.80;48.90;;;;;;5086611;28;20211;-91
2022/07/18 00:50:06;;;;;;;16.57;7.13;;;23.80;49.00;;;;;;5087037;28;20209;-90
2022/07/18 00:52:34;;;;;;;13.87;6.83;;;23.80;49.20;;;;;;5086141;28;21007;-91
2022/07/18 00:55:02;;;;;;;14.30;6.20;;;23.70;49.10;;;;;;5087106;28;20262;-90
2022/07/18 00:57:48;;;;;;;12.13;5.87;;;23.70;49.20;;;;;;5088584;28;20728;-92
2022/07/18 01:03:09;;;;;;;12.67;6.37;;;23.60;49.60;;;;;;5092921;28;20214;-92
2022/07/18 01:05:36;;;;;;;12.83;6.37;;;23.60;49.60;;;;;;5092507;28;20199;-90
2022/07/18 01:08:04;;;;;;;13.07;6.07;;;23.50;49.50;;;;;;5091562;28;20211;-91
2022/07/18 01:10:31;;;;;;;18.20;7.77;;;23.50;49.50;;;;;;5103839;28;20271;-91
2022/07/18 01:13:00;;;;;;;17.13;7.37;;;23.40;49.50;;;;;;5082627;28;20203;-90
2022/07/18 01:15:27;;;;;;;11.17;5.83;;;23.40;49.80;;;;;;5094113;28;20202;-91
2022/07/18 01:18:01;;;;;;;12.63;6.33;;;23.30;49.80;;;;;;5091288;28;20221;-90
2022/07/18 01:20:30;;;;;;;17.07;7.03;;;23.30;50.40;;;;;;5092021;28;20575;-90
2022/07/18 01:23:01;;;;;;;13.50;6.93;;;23.20;50.20;;;;;;5090887;28;20264;-90
2022/07/18 01:25:33;;;;;;;22.50;8.43;;;23.20;50.50;;;;;;5091105;28;20292;-90
2022/07/18 01:28:00;;;;;;;14.43;7.07;;;23.10;50.60;;;;;;5088021;28;20211;-90
2022/07/18 01:30:28;;;;;;;14.03;6.13;;;23.10;50.40;;;;;;5091680;28;20543;-90
2022/07/18 01:33:00;;;;;;;16.77;7.50;;;23.00;50.40;;;;;;5090478;28;20572;-91
2022/07/18 01:35:31;;;;;;;11.60;5.93;;;23.00;50.90;;;;;;5091024;28;20311;-90
2022/07/18 01:38:00;;;;;;;11.40;6.20;;;22.90;50.80;;;;;;5092232;28;20262;-90
2022/07/18 01:40:28;;;;;;;11.73;6.07;;;22.90;50.70;;;;;;5090567;28;20234;-90
2022/07/18 01:42:55;;;;;;;13.00;5.57;;;22.90;50.80;;;;;;5090157;28;20199;-90
2022/07/18 01:45:24;;;;;;;12.07;6.03;;;22.80;50.40;;;;;;5091394;28;20712;-90
2022/07/18 01:47:51;;;;;;;11.33;6.17;;;22.80;50.70;;;;;;5089931;28;20753;-90
2022/07/18 01:50:18;;;;;;;15.57;7.23;;;22.80;50.70;;;;;;5090431;28;20642;-90
2022/07/18 01:52:48;;;;;;;16.90;7.43;;;22.80;51.00;;;;;;5089744;28;20195;-90
2022/07/18 01:55:15;;;;;;;16.10;6.73;;;22.70;51.80;;;;;;5090419;28;20317;-92
2022/07/18 01:57:48;;;;;;;10.60;5.70;;;22.70;51.10;;;;;;5092433;28;20227;-93
2022/07/18 02:00:16;;;;;;;14.03;5.87;;;22.70;51.40;;;;;;5094617;28;20670;-93
2022/07/18 02:02:43;;;;;;;15.63;7.43;;;22.60;51.80;;;;;;5090566;28;20279;-92
2022/07/18 02:05:10;;;;;;;14.53;7.13;;;22.60;51.20;;;;;;5089983;28;20679;-90
2022/07/18 02:07:41;;;;;;;15.53;7.50;;;22.60;51.30;;;;;;5097056;28;20237;-95
2022/07/18 02:10:11;;;;;;;13.33;6.57;;;22.50;51.20;;;;;;5108470;28;20218;-89
2022/07/18 02:12:39;;;;;;;15.17;7.07;;;22.50;51.30;;;;;;5103267;28;20199;-87
2022/07/18 02:15:11;;;;;;;12.07;6.77;;;22.50;51.40;;;;;;5101793;28;20674;-91
2022/07/18 02:17:39;;;;;;;16.10;6.40;;;22.50;51.60;;;;;;5103470;28;20238;-90
2022/07/18 02:20:10;;;;;;;9.47;5.73;;;22.50;51.50;;;;;;5097532;28;20674;-90
2022/07/18 02:22:37;;;;;;;13.10;6.07;;;22.40;51.60;;;;;;5088852;28;20207;-92
2022/07/18 02:25:05;;;;;;;15.70;7.07;;;22.40;51.50;;;;;;5090804;28;20222;-89
2022/07/18 02:27:37;;;;;;;13.83;6.00;;;22.40;51.50;;;;;;5094470;28;20235;-88
2022/07/18 02:30:05;;;;;;;11.53;5.77;;;22.30;51.50;;;;;;5096194;28;20227;-90
2022/07/18 02:32:33;;;;;;;9.07;5.07;;;22.30;51.50;;;;;;5093311;28;20238;-89
2022/07/18 02:35:00;;;;;;;13.30;6.60;;;22.30;51.60;;;;;;5092339;28;20199;-89
2022/07/18 02:37:28;;;;;;;15.97;6.97;;;22.20;51.40;;;;;;5090547;28;20207;-91
2022/07/18 02:39:58;;;;;;;13.80;6.47;;;22.30;51.30;;;;;;5089333;28;20217;-87
2022/07/18 02:42:34;;;;;;;19.30;7.73;;;22.30;51.40;;;;;;5088089;28;20210;-89
2022/07/18 02:45:01;;;;;;;13.80;6.03;;;22.30;51.70;;;;;;5069542;28;20277;-88
2022/07/18 02:47:29;;;;;;;13.10;6.50;;;22.20;51.20;;;;;;5077870;28;20207;-88
2022/07/18 02:49:56;;;;;;;15.27;6.30;;;22.20;51.20;;;;;;5088454;28;20223;-90
2022/07/18 02:52:23;;;;;;;15.90;7.50;;;22.20;51.20;;;;;;5088828;28;20274;-89
2022/07/18 02:54:50;;;;;;;16.67;7.43;;;22.20;51.50;;;;;;5089131;28;20611;-90
2022/07/18 02:57:21;;;;;;;17.47;7.67;;;22.20;51.70;;;;;;5074729;28;20209;-89
2022/07/18 02:59:52;;;;;;;14.20;6.43;;;22.20;51.50;;;;;;5088730;28;20642;-89
2022/07/18 03:02:19;;;;;;;13.00;6.40;;;22.20;51.30;;;;;;5088908;28;20604;-91
2022/07/18 03:04:47;;;;;;;16.90;7.47;;;22.20;51.50;;;;;;5088185;28;20230;-89
2022/07/18 03:07:14;;;;;;;16.37;7.10;;;22.10;51.80;;;;;;5089501;28;20577;-89
2022/07/18 03:09:41;;;;;;;21.07;8.97;;;22.10;51.70;;;;;;5088604;28;20199;-89
2022/07/18 03:12:17;;;;;;;17.83;7.60;;;22.10;51.90;;;;;;5086093;28;20200;-89
2022/07/18 03:14:44;;;;;;;19.80;8.50;;;22.00;52.20;;;;;;5087436;28;20203;-91
2022/07/18 03:17:13;;;;;;;14.13;6.50;;;22.00;51.90;;;;;;5086020;28;20295;-91
2022/07/18 03:19:40;;;;;;;15.20;7.03;;;22.00;52.10;;;;;;5087588;28;20321;-90
2022/07/18 03:22:07;;;;;;;16.10;7.17;;;22.00;52.10;;;;;;5099563;28;20199;-89
2022/07/18 03:24:42;;;;;;;12.67;6.13;;;21.90;52.00;;;;;;5089163;28;20444;-90
2022/07/18 03:27:12;;;;;;;13.57;6.50;;;21.90;53.20;;;;;;5089384;28;20241;-90
2022/07/18 03:29:42;;;;;;;16.57;7.20;;;21.90;52.50;;;;;;5088058;28;20632;-91
2022/07/18 03:32:10;;;;;;;13.23;6.50;;;21.90;52.50;;;;;;5089520;28;20204;-91
2022/07/18 03:34:38;;;;;;;18.97;7.73;;;21.80;52.30;;;;;;5088050;28;20191;-91
2022/07/18 03:37:06;;;;;;;13.33;6.80;;;21.80;52.60;;;;;;5088874;28;20731;-91
2022/07/18 03:39:33;;;;;;;14.60;6.17;;;21.80;52.60;;;;;;5087942;28;20822;-91
2022/07/18 03:42:02;;;;;;;12.90;6.47;;;21.80;52.60;;;;;;5087689;28;20277;-90
2022/07/18 03:44:29;;;;;;;16.07;7.50;;;21.70;53.10;;;;;;5087527;28;20264;-90
2022/07/18 03:46:56;;;;;;;17.43;7.43;;;21.70;52.60;;;;;;5087929;28;20210;-90
2022/07/18 03:49:23;;;;;;;18.70;7.43;;;21.70;52.60;;;;;;5087149;28;20256;-91
2022/07/18 03:51:55;;;;;;;16.17;6.77;;;21.60;52.40;;;;;;5068015;28;20305;-90
2022/07/18 03:54:23;;;;;;;13.40;6.50;;;21.60;52.50;;;;;;5068164;28;20301;-90
2022/07/18 03:56:50;;;;;;;13.10;6.30;;;21.60;52.30;;;;;;5082597;28;20201;-90
2022/07/18 03:59:17;;;;;;;11.27;5.37;;;21.60;52.40;;;;;;5089350;28;20203;-91
2022/07/18 04:01:44;;;;;;;13.23;6.17;;;21.60;52.30;;;;;;5089588;28;20777;-93
2022/07/18 04:04:13;;;;;;;14.23;6.50;;;21.60;52.20;;;;;;5090886;28;20222;-90
2022/07/18 04:06:40;;;;;;;14.20;6.27;;;21.60;52.30;;;;;;5092482;28;20286;-91
2022/07/18 04:09:09;;;;;;;13.23;6.37;;;21.70;52.10;;;;;;5096660;28;20210;-90
2022/07/18 04:11:44;;;;;;;14.03;6.60;;;21.70;52.30;;;;;;5093900;28;20268;-90
2022/07/18 04:14:12;;;;;;;18.83;7.77;;;21.70;52.50;;;;;;5091707;28;20199;-90
2022/07/18 04:16:39;;;;;;;15.47;6.70;;;21.70;52.50;;;;;;5092214;28;20210;-90
2022/07/18 04:19:06;;;;;;;13.40;6.07;;;21.70;52.50;;;;;;5087973;28;20314;-90
2022/07/18 04:21:34;;;;;;;20.53;8.27;;;21.70;52.50;;;;;;5087400;28;20774;-91
2022/07/18 04:24:01;;;;;;;14.90;6.47;;;21.70;52.60;;;;;;5084174;28;20695;-91
2022/07/18 04:26:31;;;;;;;15.00;6.17;;;21.70;52.60;;;;;;5088222;28;20208;-93
2022/07/18 04:28:58;;;;;;;14.77;6.90;;;21.70;52.90;;;;;;5087653;28;20302;-91
2022/07/18 04:31:25;;;;;;;17.03;6.93;;;21.70;52.90;;;;;;5087778;28;20264;-91
2022/07/18 04:33:52;;;;;;;15.03;6.60;;;21.70;53.00;;;;;;5086611;28;20203;-90
2022/07/18 04:36:23;;;;;;;15.20;6.13;;;21.70;53.00;;;;;;5087614;28;20293;-91
2022/07/18 04:38:57;;;;;;;18.20;7.17;;;21.70;53.30;;;;;;5085630;28;20216;-90
2022/07/18 04:41:24;;;;;;;11.47;5.80;;;21.60;53.20;;;;;;5066882;28;20256;-91
2022/07/18 04:43:53;;;;;;;19.53;7.90;;;21.60;53.30;;;;;;5069067;28;20199;-91
2022/07/18 04:46:20;;;;;;;15.83;6.90;;;21.70;53.60;;;;;;5084879;28;20267;-90
2022/07/18 04:48:49;;;;;;;15.63;7.13;;;21.70;53.50;;;;;;5087308;28;20666;-91
2022/07/18 04:51:16;;;;;;;14.63;6.40;;;21.60;53.70;;;;;;5087234;28;20226;-91
2022/07/18 04:53:45;;;;;;;16.83;6.97;;;21.60;53.60;;;;;;5089157;28;20234;-89
2022/07/18 04:56:12;;;;;;;17.27;7.40;;;21.60;53.80;;;;;;5087996;28;20896;-92
2022/07/18 04:58:45;;;;;;;11.90;5.70;;;21.60;53.80;;;;;;5089852;28;20567;-89
2022/07/18 05:01:13;;;;;;;17.73;7.47;;;21.60;54.10;;;;;;5082074;28;20756;-92
2022/07/18 05:03:42;;;;;;;14.43;6.33;;;21.60;53.90;;;;;;5085892;28;20277;-89
2022/07/18 05:06:09;;;;;;;11.80;6.03;;;21.60;53.90;;;;;;5087969;28;20209;-90
2022/07/18 05:08:37;;;;;;;19.03;8.17;;;21.60;53.90;;;;;;5086316;28;20275;-90
2022/07/18 05:11:04;;;;;;;12.97;5.80;;;21.70;53.60;;;;;;5087746;28;20331;-89
2022/07/18 05:13:31;;;;;;;15.73;6.77;;;21.70;53.30;;;;;;5088448;28;20200;-89
2022/07/18 05:15:58;;;;;;;12.73;5.83;;;21.70;53.20;;;;;;5092112;28;20735;-91
2022/07/18 05:18:26;;;;;;;13.27;6.00;;;21.70;53.20;;;;;;5088963;28;20242;-91
2022/07/18 05:20:56;;;;;;;11.30;5.63;;;21.80;53.10;;;;;;5087771;28;20231;-90
2022/07/18 05:23:24;;;;;;;8.97;4.80;;;21.80;52.90;;;;;;5087480;28;20208;-90
2022/07/18 05:25:51;;;;;;;12.97;5.97;;;21.90;52.70;;;;;;5088659;28;20256;-89
2022/07/18 05:28:18;;;;;;;19.70;8.00;;;21.90;52.80;;;;;;5086977;28;20655;-89
2022/07/18 05:30:45;;;;;;;16.93;7.17;;;21.90;52.70;;;;;;5086936;28;20206;-90
2022/07/18 05:33:13;;;;;;;13.00;6.17;;;21.90;52.70;;;;;;5082056;28;20203;-90
2022/07/18 05:35:41;;;;;;;14.10;6.20;;;21.90;52.60;;;;;;5091599;28;20189;-89
2022/07/18 05:38:10;;;;;;;15.33;6.50;;;22.00;52.70;;;;;;5092885;28;20207;-91
2022/07/18 05:40:37;;;;;;;15.93;6.33;;;22.00;52.60;;;;;;5089949;28;20227;-91
2022/07/18 05:43:04;;;;;;;13.60;5.67;;;22.00;52.40;;;;;;5087409;28;20234;-90
2022/07/18 05:45:32;;;;;;;13.37;5.90;;;22.00;52.50;;;;;;5086002;28;20209;-91
2022/07/18 05:47:59;;;;;;;11.83;5.87;;;22.10;52.50;;;;;;5086203;28;20299;-90
2022/07/18 05:50:26;;;;;;;12.50;5.40;;;22.10;52.50;;;;;;5086140;28;20266;-90
2022/07/18 05:52:54;;;;;;;13.23;5.97;;;22.10;52.40;;;;;;5086750;28;20331;-90
2022/07/18 05:55:23;;;;;;;19.77;7.20;;;22.10;52.40;;;;;;5085034;28;20220;-91
2022/07/18 05:57:50;;;;;;;11.93;5.43;;;22.20;52.50;;;;;;5089793;28;20655;-90
2022/07/18 06:00:19;;;;;;;18.33;6.50;;;22.20;52.40;;;;;;5088136;28;20227;-94
2022/07/18 06:02:48;;;;;;;11.80;5.03;;;22.20;52.60;;;;;;5092184;28;20639;-93
2022/07/18 06:05:23;;;;;;;11.23;4.93;;;22.20;52.70;;;;;;5092344;28;20211;-94
2022/07/18 06:07:51;;;;;;;16.63;6.10;;;22.30;53.00;;;;;;5091020;28;20213;-94
2022/07/18 06:10:20;;;;;;;14.57;5.87;;;22.30;52.70;;;;;;5083991;28;20600;-92
2022/07/18 06:12:47;;;;;;;11.40;5.43;;;22.30;52.60;;;;;;5090311;28;20264;-92
2022/07/18 06:15:15;;;;;;;12.97;5.93;;;22.40;52.60;;;;;;5090881;28;20605;-90
2022/07/18 06:17:44;;;;;;;13.87;5.93;;;22.40;52.70;;;;;;5091358;28;20210;-90
2022/07/18 06:20:11;;;;;;;14.90;6.50;;;22.50;52.80;;;;;;5088739;28;20204;-89
2022/07/18 06:22:39;;;;;;;15.63;6.43;;;22.50;52.70;;;;;;5089434;28;20369;-89
2022/07/18 06:25:07;;;;;;;12.20;5.53;;;22.50;52.60;;;;;;5107300;28;20266;-90
2022/07/18 06:27:37;;;;;;;14.33;6.03;;;22.50;52.60;;;;;;5111480;28;20193;-92
2022/07/18 06:30:07;;;;;;;15.43;6.33;;;22.60;52.90;;;;;;5107002;28;20216;-90
2022/07/18 06:32:34;;;;;;;18.73;7.17;;;22.60;52.80;;;;;;5096360;27;20228;-91
2022/07/18 06:35:01;;;;;;;15.13;6.17;;;22.70;53.00;;;;;;5100322;27;20266;-90
2022/07/18 06:37:28;;;;;;;16.27;7.07;;;22.70;53.20;;;;;;5112246;27;20217;-90
2022/07/18 06:39:57;;;;;;;17.40;7.43;;;22.70;53.30;;;;;;5103115;28;20207;-90
2022/07/18 06:42:27;;;;;;;10.00;4.77;;;22.70;53.30;;;;;;5095873;28;20674;-95
2022/07/18 06:44:56;;;;;;;13.53;5.43;;;22.80;53.40;;;;;;5079421;28;20210;-96
2022/07/18 06:47:25;;;;;;;11.00;5.00;;;22.90;53.70;;;;;;5078206;28;20231;-96
2022/07/18 06:49:53;;;;;;;12.13;5.47;;;22.90;53.80;;;;;;5072893;28;20211;-90
2022/07/18 06:52:24;;;;;;;20.50;7.77;;;23.00;54.50;;;;;;5076383;28;20548;-91
2022/07/18 06:55:00;;;;;;;14.73;5.87;;;23.10;54.00;;;;;;5069921;28;20268;-91
2022/07/18 06:57:30;;;;;;;15.50;6.27;;;23.10;54.00;;;;;;5089704;28;20305;-90
2022/07/18 06:59:58;;;;;;;13.43;5.73;;;23.20;53.80;;;;;;5090811;28;20232;-90
2022/07/18 07:02:31;;;;;;;16.83;5.40;;;23.30;53.80;;;;;;5084891;28;20319;-90
2022/07/18 07:05:02;;;;;;;12.20;5.27;;;23.40;53.50;;;;;;5077028;28;20266;-89
2022/07/18 07:07:30;;;;;;;14.17;5.63;;;23.50;53.50;;;;;;5086195;28;20289;-91
2022/07/18 07:09:58;;;;;;;17.27;6.53;;;23.60;53.30;;;;;;5088167;28;20674;-91
2022/07/18 07:12:31;;;;;;;12.50;6.27;;;23.70;53.30;;;;;;5086014;28;20209;-91
2022/07/18 07:14:59;;;;;;;12.43;5.30;;;23.80;53.30;;;;;;5088834;28;20214;-90
2022/07/18 07:17:28;;;;;;;12.03;5.40;;;23.80;53.20;;;;;;5088235;28;20326;-90
2022/07/18 07:19:55;;;;;;;11.57;4.80;;;23.90;53.30;;;;;;5088644;28;20202;-90
2022/07/18 07:22:22;;;;;;;14.20;5.80;;;24.10;53.30;;;;;;5088698;28;20331;-90
2022/07/18 07:24:51;;;;;;;17.53;6.00;;;24.10;53.20;;;;;;5088784;28;20283;-90
2022/07/18 07:27:18;;;;;;;13.27;5.27;;;24.20;53.20;;;;;;5085158;28;20674;-90
2022/07/18 07:29:50;;;;;;;12.17;5.27;;;24.40;53.30;;;;;;5089460;28;20241;-91
2022/07/18 07:32:21;;;;;;;14.53;5.50;;;24.50;53.50;;;;;;5088026;28;21041;-90
2022/07/18 07:34:49;;;;;;;15.33;6.20;;;24.50;53.30;;;;;;5088479;28;20275;-90
2022/07/18 07:37:16;;;;;;;17.07;6.73;;;24.60;53.20;;;;;;5095079;28;20178;-88
2022/07/18 07:39:44;;;;;;;13.27;5.43;;;24.80;53.30;;;;;;5093962;28;20663;-91
2022/07/18 07:42:11;;;;;;;7.73;3.73;;;24.90;53.30;;;;;;5087343;28;20218;-89
2022/07/18 07:44:47;;;;;;;12.60;5.60;;;25.00;53.50;;;;;;5090006;28;20234;-91
2022/07/18 07:47:14;;;;;;;11.67;5.37;;;25.10;53.30;;;;;;5088630;28;20647;-91
2022/07/18 07:49:42;;;;;;;11.57;5.23;;;25.20;53.30;;;;;;5088256;28;20588;-90
2022/07/18 07:52:11;;;;;;;10.43;4.83;;;25.30;53.20;;;;;;5088468;28;20242;-90
2022/07/18 07:54:38;;;;;;;9.30;4.80;;;25.40;53.60;;;;;;5088390;28;20310;-89
2022/07/18 07:57:05;;;;;;;15.17;5.70;;;25.50;53.20;;;;;;5093277;28;20187;-87
2022/07/18 07:59:32;;;;;;;9.73;4.27;;;25.60;53.90;;;;;;5093070;28;20194;-87
2022/07/18 08:02:00;;;;;;;9.97;4.37;;;25.70;52.90;;;;;;5090947;28;20234;-89
2022/07/18 08:04:27;;;;;;;12.77;5.33;;;25.80;52.70;;;;;;5088976;28;20230;-90
2022/07/18 08:06:55;;;;;;;9.03;4.33;;;25.90;52.40;;;;;;5088390;28;20191;-90
2022/07/18 08:09:22;;;;;;;11.87;4.63;;;26.10;52.10;;;;;;5086829;28;20896;-89
2022/07/18 08:11:49;;;;;;;8.90;4.40;;;26.10;52.00;;;;;;5087565;28;20565;-89
2022/07/18 08:14:17;;;;;;;10.73;4.83;;;26.30;51.80;;;;;;5087387;28;20289;-90
2022/07/18 08:16:43;;;;;;;10.47;5.40;;;26.40;51.60;;;;;;5085767;28;20214;-89
2022/07/18 08:19:11;;;;;;;11.37;5.40;;;26.50;51.60;;;;;;5087162;28;20191;-89
2022/07/18 08:21:38;;;;;;;14.03;4.87;;;26.60;51.30;;;;;;5087349;28;20902;-90
2022/07/18 08:24:07;;;;;;;11.90;5.03;;;26.70;51.20;;;;;;5087203;28;20259;-89
2022/07/18 08:26:38;;;;;;;9.87;4.70;;;26.90;51.20;;;;;;5087294;28;20724;-88
2022/07/18 08:29:09;;;;;;;7.40;3.70;;;27.00;51.10;;;;;;5087357;28;20213;-89
2022/07/18 08:31:36;;;;;;;12.53;5.77;;;27.10;50.80;;;;;;5080918;28;24099;-90
2022/07/18 08:34:03;;;;;;;14.77;5.83;;;27.20;50.70;;;;;;5076223;28;20198;-90
2022/07/18 08:36:30;;;;;;;10.03;4.23;;;27.30;50.60;;;;;;5075289;28;20218;-89
2022/07/18 08:38:57;;;;;;;15.10;6.13;;;27.40;50.30;;;;;;5074925;28;20191;-89
2022/07/18 08:41:28;;;;;;;12.00;5.07;;;27.50;50.20;;;;;;5075483;28;20215;-90
2022/07/18 08:43:57;;;;;;;8.43;4.07;;;27.70;50.20;;;;;;5074913;28;20565;-89
2022/07/18 08:46:24;;;;;;;10.80;4.73;;;27.80;50.20;;;;;;5075654;28;20282;-89
2022/07/18 08:48:52;;;;;;;14.73;5.30;;;28.00;50.30;;;;;;5074638;28;20264;-89
2022/07/18 08:51:22;;;;;;;16.00;5.37;;;28.20;50.10;;;;;;5075721;28;20203;-90
2022/07/18 08:53:52;;;;;;;8.77;4.20;;;28.30;50.30;;;;;;5074876;28;20218;-88
2022/07/18 08:56:19;;;;;;;10.60;4.73;;;28.50;50.00;;;;;;5075166;28;20675;-90
2022/07/18 08:58:48;;;;;;;9.00;4.17;;;28.80;49.30;;;;;;5074937;28;20294;-90
2022/07/18 09:01:15;;;;;;;8.83;3.83;;;29.00;48.60;;;;;;5075165;28;20298;-92
2022/07/18 09:03:42;;;;;;;7.27;3.57;;;29.30;48.90;;;;;;5074976;28;20587;-88
2022/07/18 09:06:14;;;;;;;12.73;3.27;;;29.60;48.50;;;;;;5074859;28;20288;-89
2022/07/18 09:08:58;;;;;;;9.03;4.40;;;29.80;47.80;;;;;;5074674;28;20287;-90
2022/07/18 09:11:26;;;;;;;8.73;3.57;;;30.10;46.80;;;;;;5076912;28;20262;-96
2022/07/18 09:14:01;;;;;;;7.82;3.28;;;30.40;47.50;;;;;;5076043;28;20718;-93
2022/07/18 09:16:28;;;;;;;11.65;5.25;;;30.70;46.00;;;;;;5076519;28;20223;-89
2022/07/18 09:18:55;;;;;;;10.10;4.65;;;30.90;46.60;;;;;;5074375;28;20190;-91
2022/07/18 09:21:23;;;;;;;9.07;3.28;;;31.20;46.30;;;;;;5075106;28;20679;-90
2022/07/18 09:23:53;;;;;;;16.20;6.55;;;31.50;45.70;;;;;;5073620;28;20195;-91
2022/07/18 09:26:39;;;;;;;12.95;5.78;;;31.70;45.20;;;;;;5081363;22;21569;-93
2022/07/18 09:29:09;;;;;;;11.43;4.97;;;31.90;44.80;;;;;;5080877;28;20643;-91
2022/07/18 09:31:36;;;;;;;12.98;6.10;;;32.20;45.20;;;;;;5081684;28;20208;-90
2022/07/18 09:34:10;;;;;;;8.95;4.65;;;32.40;44.80;;;;;;5091330;28;20222;-90
2022/07/18 09:36:56;;;;;;;8.52;4.30;;;32.60;44.40;;;;;;5091640;28;20312;-90
2022/07/18 09:39:26;;;;;;;6.20;3.13;;;32.90;43.40;;;;;;5093011;28;20203;-89
2022/07/18 09:42:14;;;;;;;8.35;3.85;;;33.10;44.30;;;;;;5093677;28;20227;-92
2022/07/18 09:44:42;;;;;;;6.60;3.50;;;33.30;42.50;;;;;;5097094;28;20202;-89
2022/07/18 09:47:10;;;;;;;7.88;3.30;;;33.50;42.80;;;;;;5091569;28;20203;-90
2022/07/18 09:49:42;;;;;;;8.02;4.45;;;33.70;43.00;;;;;;5092322;28;20253;-90
2022/07/18 09:52:10;;;;;;;9.27;4.80;;;33.90;42.30;;;;;;5094287;28;20205;-90
2022/07/18 09:54:39;;;;;;;7.40;4.05;;;34.10;41.90;;;;;;5094141;28;20201;-91
2022/07/18 09:57:07;;;;;;;7.00;3.58;;;34.20;41.50;;;;;;5089627;28;20678;-88
2022/07/18 09:59:38;;;;;;;8.52;4.05;;;34.40;41.60;;;;;;5093216;28;20226;-90
2022/07/18 10:02:10;;;;;;;7.13;3.95;;;34.60;40.80;;;;;;5086813;28;20306;-89
2022/07/18 10:04:37;;;;;;;8.00;3.72;;;34.70;39.20;;;;;;5091377;28;20282;-89
2022/07/18 10:07:04;;;;;;;8.23;3.50;;;34.90;40.20;;;;;;5090514;28;20247;-91
2022/07/18 10:09:33;;;;;;;10.63;3.78;;;35.00;39.70;;;;;;5090259;28;20208;-90
2022/07/18 10:12:04;;;;;;;5.85;3.05;;;35.10;39.60;;;;;;5091000;28;20674;-96
2022/07/18 10:14:33;;;;;;;6.22;3.67;;;35.30;38.30;;;;;;5086914;28;20202;-89
2022/07/18 10:17:01;;;;;;;5.15;3.15;;;35.50;38.30;;;;;;5077299;28;20218;-89
2022/07/18 10:19:30;;;;;;;6.97;3.25;;;35.60;38.30;;;;;;5082751;28;20225;-87
2022/07/18 10:21:58;;;;;;;7.85;3.92;;;35.70;37.30;;;;;;5084073;28;20290;-89
2022/07/18 10:24:27;;;;;;;7.03;3.28;;;35.80;37.30;;;;;;5085714;28;20214;-89
2022/07/18 10:27:13;;;;;;;5.30;3.40;;;35.90;36.70;;;;;;5086628;28;20218;-90
2022/07/18 10:29:40;;;;;;;10.82;3.80;;;36.00;35.80;;;;;;5087578;28;20210;-91
2022/07/18 10:32:08;;;;;;;6.15;3.22;;;36.20;36.40;;;;;;5090372;28;20218;-89
2022/07/18 10:34:39;;;;;;;7.07;3.88;;;36.20;36.20;;;;;;5088102;28;20589;-91
2022/07/18 10:37:11;;;;;;;6.28;3.25;;;36.30;35.50;;;;;;5091700;28;20206;-87
2022/07/18 10:39:44;;;;;;;5.47;3.38;;;36.40;35.60;;;;;;5087175;28;20204;-88
2022/07/18 10:42:24;;;;;;;6.80;3.88;;;36.50;35.30;;;;;;5077683;28;20305;-88
2022/07/18 10:44:52;;;;;;;4.57;2.92;;;36.70;34.70;;;;;;5086768;28;20318;-89
2022/07/18 10:47:23;;;;;;;8.02;4.65;;;36.70;35.10;;;;;;5088327;28;20306;-91
2022/07/18 10:50:10;;;;;;;10.93;5.07;;;36.80;34.70;;;;;;5090846;28;20207;-90
2022/07/18 10:52:57;;;;;;;6.20;3.95;;;36.90;33.90;;;;;;5110921;28;20230;-89
2022/07/18 10:55:47;;;;;;;5.38;3.20;;;37.00;33.30;;;;;;5109856;28;20288;-90
2022/07/18 10:58:21;;;;;;;5.70;3.08;;;37.10;32.40;;;;;;5103590;28;20241;-91
2022/07/18 11:01:03;;;;;;;6.30;2.97;;;37.20;32.60;;;;;;5099023;28;20214;-91
2022/07/18 11:03:30;;;;;;;3.65;2.20;;;37.30;31.70;;;;;;5086490;28;20231;-89
2022/07/18 11:05:59;;;;;;;6.57;3.97;;;37.30;32.50;;;;;;5086915;28;20198;-91
2022/07/18 11:08:31;;;;;;;5.78;3.17;;;37.40;32.40;;;;;;5091473;28;20970;-90
2022/07/18 11:11:15;;;;;;;9.00;4.75;;;37.40;32.80;;;;;;5086302;28;20309;-91
2022/07/18 11:14:00;;;;;;;6.78;3.50;;;37.40;31.20;;;;;;5087621;28;20199;-92
2022/07/18 11:16:27;;;;;;;11.32;5.30;;;37.50;31.10;;;;;;5081755;28;20209;-92
2022/07/18 11:19:20;;;;;;;6.95;3.50;;;37.50;31.60;;;;;;5086843;28;20283;-89
2022/07/18 11:21:57;;;;;;;8.15;4.03;;;37.60;31.50;;;;;;5075171;28;20252;-89
2022/07/18 11:24:25;;;;;;;7.47;3.85;;;37.60;30.70;;;;;;5089705;28;20206;-89
2022/07/18 11:26:52;;;;;;;7.10;3.67;;;37.70;31.40;;;;;;5087816;28;20221;-90
2022/07/18 11:29:22;;;;;;;13.20;5.82;;;37.70;31.30;;;;;;5087123;28;20215;-90
2022/07/18 11:31:52;;;;;;;7.55;3.78;;;37.70;31.10;;;;;;5077608;28;20195;-89
2022/07/18 11:34:19;;;;;;;7.03;3.53;;;37.80;31.50;;;;;;5070452;28;20645;-90
2022/07/18 11:36:48;;;;;;;7.38;3.95;;;37.80;31.20;;;;;;5068994;28;20311;-89
2022/07/18 11:39:28;;;;;;;6.43;3.22;;;37.90;31.90;;;;;;5069329;28;20286;-90
2022/07/18 11:41:55;;;;;;;9.77;4.25;;;37.90;31.00;;;;;;5068983;28;20199;-88
2022/07/18 11:44:26;;;;;;;9.60;3.83;;;38.00;31.70;;;;;;5069043;28;20235;-91
2022/07/18 11:47:03;;;;;;;7.20;3.63;;;38.10;31.20;;;;;;5083645;28;20230;-89
2022/07/18 11:49:30;;;;;;;6.30;3.58;;;38.30;30.10;;;;;;5085951;28;21004;-90
2022/07/18 11:51:59;;;;;;;7.20;4.00;;;38.40;30.50;;;;;;5067506;28;20192;-92
2022/07/18 11:54:28;;;;;;;7.68;3.65;;;38.50;29.90;;;;;;5067576;28;20656;-88
2022/07/18 11:56:56;;;;;;;9.35;4.05;;;38.50;29.90;;;;;;5068213;28;20242;-91
2022/07/18 11:59:36;;;;;;;4.97;2.85;;;38.60;29.70;;;;;;5068221;28;20276;-90
2022/07/18 12:02:04;;;;;;;10.32;4.13;;;38.70;28.90;;;;;;5076093;28;20234;-89
2022/07/18 12:04:31;;;;;;;6.57;3.63;;;38.80;29.80;;;;;;5088088;28;20829;-89
2022/07/18 12:07:21;;;;;;;9.00;3.92;;;38.90;29.90;;;;;;5091744;28;20207;-89
2022/07/18 12:09:49;;;;;;;4.95;3.33;;;39.00;29.40;;;;;;5069296;28;20184;-89
2022/07/18 12:12:17;;;;;;;5.43;3.28;;;39.00;30.00;;;;;;5068912;28;20600;-89
2022/07/18 12:14:53;;;;;;;6.03;3.53;;;39.10;29.60;;;;;;5078639;28;20210;-90
2022/07/18 12:17:27;;;;;;;7.00;4.13;;;39.20;29.30;;;;;;5087018;28;20213;-91
2022/07/18 12:20:09;;;;;;;4.90;2.97;;;39.30;28.90;;;;;;5086278;28;20195;-91
2022/07/18 12:23:14;;;;;;;7.22;4.38;;;39.40;28.90;;;;;;5079496;28;20269;-92
2022/07/18 12:25:42;;;;;;;6.32;3.60;;;39.50;28.20;;;;;;5072677;28;20288;-90
2022/07/18 12:31:00;;;;;;;5.75;3.67;;;39.60;28.30;;;;;;5086015;28;20202;-90
2022/07/18 12:33:29;;;;;;;8.00;4.18;;;39.70;28.80;;;;;;5089347;28;20198;-92
2022/07/18 12:35:57;;;;;;;5.97;3.75;;;39.80;28.50;;;;;;5089954;28;20211;-92
2022/07/18 12:38:26;;;;;;;8.18;3.80;;;39.80;28.20;;;;;;5087577;28;20243;-94
2022/07/18 12:40:57;;;;;;;4.60;2.92;;;39.90;28.30;;;;;;5084532;28;20203;-92
2022/07/18 12:43:27;;;;;;;10.38;5.18;;;40.00;27.90;;;;;;5085534;28;20624;-92
2022/07/18 12:46:11;;;;;;;6.40;3.38;;;40.10;27.70;;;;;;5087208;28;20198;-94
2022/07/18 12:48:39;;;;;;;6.20;3.70;;;40.10;27.10;;;;;;5089300;28;20210;-92
2022/07/18 12:51:19;;;;;;;7.30;4.05;;;40.10;27.40;;;;;;5077599;28;20209;-94
2022/07/18 12:53:48;;;;;;;6.80;4.00;;;40.10;27.50;;;;;;5084503;28;20250;-90
2022/07/18 12:56:42;;;;;;;6.88;3.60;;;40.20;27.20;;;;;;5083238;28;20199;-89
2022/07/18 12:59:18;;;;;;;6.05;3.25;;;40.30;26.90;;;;;;5081270;28;20224;-90